sensor_id;sensor_type;location;lat;lon;timestamp;P1;durP1;ratioP1;P2;durP2;ratioP2
29358;SDS011;16347;53.232;6.556;2022-12-17T00:01:14;92.03;;;24.10;;
29358;SDS011;16347;53.232;6.556;2022-12-17T00:04:00;98.32;;;23.80;;
29358;SDS011;16347;53.232;6.556;2022-12-17T00:06:49;86.82;;;22.92;;
29358;SDS011;16347;53.232;6.556;2022-12-17T00:09:35;73.03;;;23.75;;
29358;SDS011;16347;53.232;6.556;2022-12-17T00:12:21;70.07;;;27.85;;
29358;SDS011;16347;53.232;6.556;2022-12-17T00:15:08;73.80;;;25.23;;
29358;SDS011;16347;53.232;6.556;2022-12-17T00:18:00;69.97;;;25.35;;
29358;SDS011;16347;53.232;6.556;2022-12-17T00:20:50;79.93;;;24.70;;
29358;SDS011;16347;53.232;6.556;2022-12-17T00:23:36;98.80;;;25.75;;
29358;SDS011;16347;53.232;6.556;2022-12-17T00:26:22;83.80;;;25.63;;
29358;SDS011;16347;53.232;6.556;2022-12-17T00:29:07;62.85;;;24.65;;
29358;SDS011;16347;53.232;6.556;2022-12-17T00:31:54;79.25;;;23.58;;
29358;SDS011;16347;53.232;6.556;2022-12-17T00:34:40;71.15;;;23.27;;
29358;SDS011;16347;53.232;6.556;2022-12-17T00:37:25;93.20;;;25.48;;
29358;SDS011;16347;53.232;6.556;2022-12-17T00:40:11;65.47;;;25.17;;
29358;SDS011;16347;53.232;6.556;2022-12-17T00:42:59;75.00;;;25.20;;
29358;SDS011;16347;53.232;6.556;2022-12-17T00:45:47;64.97;;;24.70;;
29358;SDS011;16347;53.232;6.556;2022-12-17T00:48:34;65.93;;;24.73;;
29358;SDS011;16347;53.232;6.556;2022-12-17T00:51:21;62.35;;;24.88;;
29358;SDS011;16347;53.232;6.556;2022-12-17T00:54:07;75.55;;;24.67;;
29358;SDS011;16347;53.232;6.556;2022-12-17T00:56:52;67.00;;;26.02;;
29358;SDS011;16347;53.232;6.556;2022-12-17T00:59:38;62.70;;;24.30;;
29358;SDS011;16347;53.232;6.556;2022-12-17T01:02:23;65.05;;;24.83;;
29358;SDS011;16347;53.232;6.556;2022-12-17T01:05:11;63.53;;;25.60;;
29358;SDS011;16347;53.232;6.556;2022-12-17T01:07:56;69.10;;;25.77;;
29358;SDS011;16347;53.232;6.556;2022-12-17T01:10:50;78.88;;;27.27;;
29358;SDS011;16347;53.232;6.556;2022-12-17T01:13:36;79.13;;;26.40;;
29358;SDS011;16347;53.232;6.556;2022-12-17T01:16:22;80.60;;;28.60;;
29358;SDS011;16347;53.232;6.556;2022-12-17T01:19:07;72.22;;;25.33;;
29358;SDS011;16347;53.232;6.556;2022-12-17T01:21:54;96.70;;;27.73;;
29358;SDS011;16347;53.232;6.556;2022-12-17T01:24:40;97.55;;;27.88;;
29358;SDS011;16347;53.232;6.556;2022-12-17T01:27:25;76.30;;;25.92;;
29358;SDS011;16347;53.232;6.556;2022-12-17T01:30:11;76.95;;;30.48;;
29358;SDS011;16347;53.232;6.556;2022-12-17T01:32:59;88.53;;;29.90;;
29358;SDS011;16347;53.232;6.556;2022-12-17T01:35:45;76.22;;;28.70;;
29358;SDS011;16347;53.232;6.556;2022-12-17T01:38:32;88.15;;;29.52;;
29358;SDS011;16347;53.232;6.556;2022-12-17T01:41:18;97.18;;;31.92;;
29358;SDS011;16347;53.232;6.556;2022-12-17T01:47:22;95.25;;;33.63;;
29358;SDS011;16347;53.232;6.556;2022-12-17T01:50:08;108.22;;;31.92;;
29358;SDS011;16347;53.232;6.556;2022-12-17T01:52:56;111.03;;;30.45;;
29358;SDS011;16347;53.232;6.556;2022-12-17T01:55:45;97.45;;;30.75;;
29358;SDS011;16347;53.232;6.556;2022-12-17T01:58:32;98.13;;;34.55;;
29358;SDS011;16347;53.232;6.556;2022-12-17T02:01:19;99.00;;;32.85;;
29358;SDS011;16347;53.232;6.556;2022-12-17T02:04:05;110.85;;;30.48;;
29358;SDS011;16347;53.232;6.556;2022-12-17T02:06:55;91.82;;;33.63;;
29358;SDS011;16347;53.232;6.556;2022-12-17T02:09:49;96.53;;;33.30;;
29358;SDS011;16347;53.232;6.556;2022-12-17T02:12:45;103.78;;;32.95;;
29358;SDS011;16347;53.232;6.556;2022-12-17T02:15:39;104.65;;;31.92;;
29358;SDS011;16347;53.232;6.556;2022-12-17T02:18:33;91.22;;;33.17;;
29358;SDS011;16347;53.232;6.556;2022-12-17T02:21:27;114.65;;;36.35;;
29358;SDS011;16347;53.232;6.556;2022-12-17T02:24:16;105.22;;;34.60;;
29358;SDS011;16347;53.232;6.556;2022-12-17T02:27:13;102.90;;;36.10;;
29358;SDS011;16347;53.232;6.556;2022-12-17T02:30:00;114.10;;;36.45;;
29358;SDS011;16347;53.232;6.556;2022-12-17T02:32:50;98.50;;;35.85;;
29358;SDS011;16347;53.232;6.556;2022-12-17T02:35:39;100.13;;;33.47;;
29358;SDS011;16347;53.232;6.556;2022-12-17T02:38:38;99.10;;;32.65;;
29358;SDS011;16347;53.232;6.556;2022-12-17T02:41:26;93.60;;;31.15;;
29358;SDS011;16347;53.232;6.556;2022-12-17T02:44:17;96.70;;;33.00;;
29358;SDS011;16347;53.232;6.556;2022-12-17T02:47:06;100.90;;;32.67;;
29358;SDS011;16347;53.232;6.556;2022-12-17T02:49:54;100.25;;;34.40;;
29358;SDS011;16347;53.232;6.556;2022-12-17T02:52:44;92.72;;;33.00;;
29358;SDS011;16347;53.232;6.556;2022-12-17T02:55:32;92.03;;;32.17;;
29358;SDS011;16347;53.232;6.556;2022-12-17T02:58:18;88.07;;;30.95;;
29358;SDS011;16347;53.232;6.556;2022-12-17T03:01:05;88.68;;;31.88;;
29358;SDS011;16347;53.232;6.556;2022-12-17T03:03:51;88.30;;;30.50;;
29358;SDS011;16347;53.232;6.556;2022-12-17T03:06:38;89.65;;;32.40;;
29358;SDS011;16347;53.232;6.556;2022-12-17T03:09:24;91.85;;;31.33;;
29358;SDS011;16347;53.232;6.556;2022-12-17T03:12:10;76.60;;;29.92;;
29358;SDS011;16347;53.232;6.556;2022-12-17T03:14:55;82.53;;;30.98;;
29358;SDS011;16347;53.232;6.556;2022-12-17T03:17:42;85.45;;;30.40;;
29358;SDS011;16347;53.232;6.556;2022-12-17T03:20:28;75.45;;;30.02;;
29358;SDS011;16347;53.232;6.556;2022-12-17T03:23:13;76.50;;;29.00;;
29358;SDS011;16347;53.232;6.556;2022-12-17T03:26:00;90.40;;;30.63;;
29358;SDS011;16347;53.232;6.556;2022-12-17T03:28:47;79.47;;;30.27;;
29358;SDS011;16347;53.232;6.556;2022-12-17T03:31:33;78.00;;;28.88;;
29358;SDS011;16347;53.232;6.556;2022-12-17T03:34:19;71.82;;;27.85;;
29358;SDS011;16347;53.232;6.556;2022-12-17T03:37:05;86.78;;;29.20;;
29358;SDS011;16347;53.232;6.556;2022-12-17T03:39:50;79.03;;;30.48;;
29358;SDS011;16347;53.232;6.556;2022-12-17T03:42:36;73.22;;;27.77;;
29358;SDS011;16347;53.232;6.556;2022-12-17T03:45:21;76.40;;;30.05;;
29358;SDS011;16347;53.232;6.556;2022-12-17T03:48:08;68.15;;;28.73;;
29358;SDS011;16347;53.232;6.556;2022-12-17T03:50:56;82.63;;;29.25;;
29358;SDS011;16347;53.232;6.556;2022-12-17T03:53:43;78.05;;;29.65;;
29358;SDS011;16347;53.232;6.556;2022-12-17T03:56:29;75.22;;;29.05;;
29358;SDS011;16347;53.232;6.556;2022-12-17T03:59:15;80.65;;;30.50;;
29358;SDS011;16347;53.232;6.556;2022-12-17T04:02:00;83.30;;;30.83;;
29358;SDS011;16347;53.232;6.556;2022-12-17T04:04:57;79.38;;;28.52;;
29358;SDS011;16347;53.232;6.556;2022-12-17T04:07:47;80.90;;;29.83;;
29358;SDS011;16347;53.232;6.556;2022-12-17T04:10:32;84.07;;;29.42;;
29358;SDS011;16347;53.232;6.556;2022-12-17T04:13:19;76.35;;;28.75;;
29358;SDS011;16347;53.232;6.556;2022-12-17T04:16:07;86.93;;;32.58;;
29358;SDS011;16347;53.232;6.556;2022-12-17T04:18:56;84.50;;;28.23;;
29358;SDS011;16347;53.232;6.556;2022-12-17T04:21:42;79.93;;;28.23;;
29358;SDS011;16347;53.232;6.556;2022-12-17T04:24:29;73.70;;;28.08;;
29358;SDS011;16347;53.232;6.556;2022-12-17T04:27:15;80.55;;;31.15;;
29358;SDS011;16347;53.232;6.556;2022-12-17T04:30:00;76.25;;;29.02;;
29358;SDS011;16347;53.232;6.556;2022-12-17T04:32:46;80.00;;;29.60;;
29358;SDS011;16347;53.232;6.556;2022-12-17T04:35:32;84.53;;;29.70;;
29358;SDS011;16347;53.232;6.556;2022-12-17T04:38:17;81.47;;;30.17;;
29358;SDS011;16347;53.232;6.556;2022-12-17T04:41:05;82.63;;;29.15;;
29358;SDS011;16347;53.232;6.556;2022-12-17T04:43:50;77.68;;;30.15;;
29358;SDS011;16347;53.232;6.556;2022-12-17T04:46:36;83.05;;;31.33;;
29358;SDS011;16347;53.232;6.556;2022-12-17T04:49:21;79.57;;;30.25;;
29358;SDS011;16347;53.232;6.556;2022-12-17T04:52:07;76.82;;;30.30;;
29358;SDS011;16347;53.232;6.556;2022-12-17T04:54:52;86.72;;;32.00;;
29358;SDS011;16347;53.232;6.556;2022-12-17T04:57:39;82.55;;;29.83;;
29358;SDS011;16347;53.232;6.556;2022-12-17T05:00:24;83.07;;;30.77;;
29358;SDS011;16347;53.232;6.556;2022-12-17T05:03:11;86.85;;;31.17;;
29358;SDS011;16347;53.232;6.556;2022-12-17T05:05:58;76.70;;;31.45;;
29358;SDS011;16347;53.232;6.556;2022-12-17T05:08:44;84.47;;;30.67;;
29358;SDS011;16347;53.232;6.556;2022-12-17T05:11:30;81.47;;;31.15;;
29358;SDS011;16347;53.232;6.556;2022-12-17T05:14:17;81.60;;;30.63;;
29358;SDS011;16347;53.232;6.556;2022-12-17T05:17:02;82.43;;;32.13;;
29358;SDS011;16347;53.232;6.556;2022-12-17T05:19:48;86.53;;;31.58;;
29358;SDS011;16347;53.232;6.556;2022-12-17T05:22:33;82.88;;;30.92;;
29358;SDS011;16347;53.232;6.556;2022-12-17T05:25:19;86.65;;;32.22;;
29358;SDS011;16347;53.232;6.556;2022-12-17T05:28:04;76.90;;;30.52;;
29358;SDS011;16347;53.232;6.556;2022-12-17T05:30:52;78.68;;;31.13;;
29358;SDS011;16347;53.232;6.556;2022-12-17T05:33:38;84.80;;;32.28;;
29358;SDS011;16347;53.232;6.556;2022-12-17T05:36:26;88.53;;;33.42;;
29358;SDS011;16347;53.232;6.556;2022-12-17T05:39:11;85.38;;;31.55;;
29358;SDS011;16347;53.232;6.556;2022-12-17T05:41:57;86.75;;;32.35;;
29358;SDS011;16347;53.232;6.556;2022-12-17T05:44:43;88.50;;;34.08;;
29358;SDS011;16347;53.232;6.556;2022-12-17T05:47:30;84.85;;;32.28;;
29358;SDS011;16347;53.232;6.556;2022-12-17T05:50:15;91.85;;;32.20;;
29358;SDS011;16347;53.232;6.556;2022-12-17T05:53:01;85.00;;;31.88;;
29358;SDS011;16347;53.232;6.556;2022-12-17T05:55:48;86.82;;;33.13;;
29358;SDS011;16347;53.232;6.556;2022-12-17T05:58:34;79.22;;;31.77;;
29358;SDS011;16347;53.232;6.556;2022-12-17T06:01:19;86.65;;;34.05;;
29358;SDS011;16347;53.232;6.556;2022-12-17T06:04:07;87.95;;;33.25;;
29358;SDS011;16347;53.232;6.556;2022-12-17T06:06:53;79.78;;;30.67;;
29358;SDS011;16347;53.232;6.556;2022-12-17T06:09:38;81.93;;;31.48;;
29358;SDS011;16347;53.232;6.556;2022-12-17T06:12:24;73.80;;;30.55;;
29358;SDS011;16347;53.232;6.556;2022-12-17T06:15:09;83.40;;;31.98;;
29358;SDS011;16347;53.232;6.556;2022-12-17T06:17:55;78.07;;;31.02;;
29358;SDS011;16347;53.232;6.556;2022-12-17T06:20:44;83.63;;;33.45;;
29358;SDS011;16347;53.232;6.556;2022-12-17T06:23:30;89.97;;;34.10;;
29358;SDS011;16347;53.232;6.556;2022-12-17T06:26:20;89.07;;;32.85;;
29358;SDS011;16347;53.232;6.556;2022-12-17T06:29:06;89.05;;;32.90;;
29358;SDS011;16347;53.232;6.556;2022-12-17T06:31:54;80.13;;;32.78;;
29358;SDS011;16347;53.232;6.556;2022-12-17T06:34:39;82.50;;;32.38;;
29358;SDS011;16347;53.232;6.556;2022-12-17T06:37:26;81.97;;;32.22;;
29358;SDS011;16347;53.232;6.556;2022-12-17T06:40:12;86.30;;;33.03;;
29358;SDS011;16347;53.232;6.556;2022-12-17T06:42:57;87.32;;;33.33;;
29358;SDS011;16347;53.232;6.556;2022-12-17T06:45:51;82.80;;;31.83;;
29358;SDS011;16347;53.232;6.556;2022-12-17T06:48:36;86.15;;;32.55;;
29358;SDS011;16347;53.232;6.556;2022-12-17T06:51:22;84.30;;;31.45;;
29358;SDS011;16347;53.232;6.556;2022-12-17T06:54:14;78.88;;;31.58;;
29358;SDS011;16347;53.232;6.556;2022-12-17T06:57:00;85.75;;;34.30;;
29358;SDS011;16347;53.232;6.556;2022-12-17T06:59:45;84.43;;;32.40;;
29358;SDS011;16347;53.232;6.556;2022-12-17T07:02:32;88.07;;;35.33;;
29358;SDS011;16347;53.232;6.556;2022-12-17T07:05:18;84.82;;;32.00;;
29358;SDS011;16347;53.232;6.556;2022-12-17T07:08:03;84.75;;;31.77;;
29358;SDS011;16347;53.232;6.556;2022-12-17T07:10:50;85.57;;;34.28;;
29358;SDS011;16347;53.232;6.556;2022-12-17T07:13:36;79.47;;;32.45;;
29358;SDS011;16347;53.232;6.556;2022-12-17T07:16:21;82.82;;;33.55;;
29358;SDS011;16347;53.232;6.556;2022-12-17T07:19:07;79.55;;;32.75;;
29358;SDS011;16347;53.232;6.556;2022-12-17T07:21:53;75.22;;;32.83;;
29358;SDS011;16347;53.232;6.556;2022-12-17T07:24:39;85.30;;;32.95;;
29358;SDS011;16347;53.232;6.556;2022-12-17T07:27:27;97.93;;;33.28;;
29358;SDS011;16347;53.232;6.556;2022-12-17T07:30:12;84.03;;;32.30;;
29358;SDS011;16347;53.232;6.556;2022-12-17T07:32:58;85.82;;;34.83;;
29358;SDS011;16347;53.232;6.556;2022-12-17T07:35:44;96.90;;;35.35;;
29358;SDS011;16347;53.232;6.556;2022-12-17T07:38:30;86.80;;;33.25;;
29358;SDS011;16347;53.232;6.556;2022-12-17T07:41:16;99.65;;;35.08;;
29358;SDS011;16347;53.232;6.556;2022-12-17T07:44:05;98.22;;;35.80;;
29358;SDS011;16347;53.232;6.556;2022-12-17T07:46:51;98.82;;;36.42;;
29358;SDS011;16347;53.232;6.556;2022-12-17T07:49:36;101.93;;;36.28;;
29358;SDS011;16347;53.232;6.556;2022-12-17T07:52:22;90.43;;;35.78;;
29358;SDS011;16347;53.232;6.556;2022-12-17T07:55:08;93.35;;;35.90;;
29358;SDS011;16347;53.232;6.556;2022-12-17T07:57:57;94.78;;;36.35;;
29358;SDS011;16347;53.232;6.556;2022-12-17T08:00:44;94.13;;;35.95;;
29358;SDS011;16347;53.232;6.556;2022-12-17T08:03:30;106.00;;;37.25;;
29358;SDS011;16347;53.232;6.556;2022-12-17T08:06:17;94.32;;;35.03;;
29358;SDS011;16347;53.232;6.556;2022-12-17T08:09:02;99.70;;;36.20;;
29358;SDS011;16347;53.232;6.556;2022-12-17T08:11:48;95.38;;;37.00;;
29358;SDS011;16347;53.232;6.556;2022-12-17T08:14:33;94.78;;;34.45;;
29358;SDS011;16347;53.232;6.556;2022-12-17T08:17:20;105.30;;;37.15;;
29358;SDS011;16347;53.232;6.556;2022-12-17T08:20:06;89.63;;;34.38;;
29358;SDS011;16347;53.232;6.556;2022-12-17T08:22:52;89.53;;;34.33;;
29358;SDS011;16347;53.232;6.556;2022-12-17T08:25:44;98.93;;;36.13;;
29358;SDS011;16347;53.232;6.556;2022-12-17T08:28:30;98.95;;;37.30;;
29358;SDS011;16347;53.232;6.556;2022-12-17T08:31:17;94.00;;;35.80;;
29358;SDS011;16347;53.232;6.556;2022-12-17T08:34:04;99.80;;;36.47;;
29358;SDS011;16347;53.232;6.556;2022-12-17T08:36:50;103.45;;;37.45;;
29358;SDS011;16347;53.232;6.556;2022-12-17T08:39:35;102.70;;;35.28;;
29358;SDS011;16347;53.232;6.556;2022-12-17T08:42:30;93.78;;;33.22;;
29358;SDS011;16347;53.232;6.556;2022-12-17T08:45:15;98.68;;;34.22;;
29358;SDS011;16347;53.232;6.556;2022-12-17T08:48:01;97.30;;;35.75;;
29358;SDS011;16347;53.232;6.556;2022-12-17T08:50:56;91.65;;;34.40;;
29358;SDS011;16347;53.232;6.556;2022-12-17T08:53:41;88.10;;;31.67;;
29358;SDS011;16347;53.232;6.556;2022-12-17T08:56:27;99.85;;;34.60;;
29358;SDS011;16347;53.232;6.556;2022-12-17T08:59:12;91.60;;;34.13;;
29358;SDS011;16347;53.232;6.556;2022-12-17T09:01:58;97.93;;;33.80;;
29358;SDS011;16347;53.232;6.556;2022-12-17T09:04:43;100.57;;;34.17;;
29358;SDS011;16347;53.232;6.556;2022-12-17T09:07:30;94.88;;;34.60;;
29358;SDS011;16347;53.232;6.556;2022-12-17T09:10:15;101.57;;;33.40;;
29358;SDS011;16347;53.232;6.556;2022-12-17T09:13:01;95.13;;;33.85;;
29358;SDS011;16347;53.232;6.556;2022-12-17T09:15:50;96.80;;;34.90;;
29358;SDS011;16347;53.232;6.556;2022-12-17T09:18:36;106.00;;;35.40;;
29358;SDS011;16347;53.232;6.556;2022-12-17T09:21:21;109.35;;;36.10;;
29358;SDS011;16347;53.232;6.556;2022-12-17T09:24:09;100.65;;;33.60;;
29358;SDS011;16347;53.232;6.556;2022-12-17T09:27:01;99.18;;;34.97;;
29358;SDS011;16347;53.232;6.556;2022-12-17T09:29:47;103.10;;;34.58;;
29358;SDS011;16347;53.232;6.556;2022-12-17T09:32:32;106.50;;;35.33;;
29358;SDS011;16347;53.232;6.556;2022-12-17T09:35:18;95.82;;;33.58;;
29358;SDS011;16347;53.232;6.556;2022-12-17T09:38:02;99.78;;;35.05;;
29358;SDS011;16347;53.232;6.556;2022-12-17T09:40:49;101.75;;;35.25;;
29358;SDS011;16347;53.232;6.556;2022-12-17T09:43:38;110.20;;;37.35;;
29358;SDS011;16347;53.232;6.556;2022-12-17T09:46:31;107.32;;;36.20;;
29358;SDS011;16347;53.232;6.556;2022-12-17T09:49:20;105.63;;;34.10;;
29358;SDS011;16347;53.232;6.556;2022-12-17T09:52:13;104.40;;;34.00;;
29358;SDS011;16347;53.232;6.556;2022-12-17T09:55:11;101.10;;;32.67;;
29358;SDS011;16347;53.232;6.556;2022-12-17T09:58:12;105.82;;;34.25;;
29358;SDS011;16347;53.232;6.556;2022-12-17T10:01:03;107.50;;;35.28;;
29358;SDS011;16347;53.232;6.556;2022-12-17T10:03:50;96.07;;;33.13;;
29358;SDS011;16347;53.232;6.556;2022-12-17T10:06:36;93.40;;;33.53;;
29358;SDS011;16347;53.232;6.556;2022-12-17T10:09:22;106.63;;;34.38;;
29358;SDS011;16347;53.232;6.556;2022-12-17T10:12:11;99.93;;;35.25;;
29358;SDS011;16347;53.232;6.556;2022-12-17T10:15:00;109.88;;;34.78;;
29358;SDS011;16347;53.232;6.556;2022-12-17T10:17:45;98.20;;;33.83;;
29358;SDS011;16347;53.232;6.556;2022-12-17T10:20:31;103.53;;;33.55;;
29358;SDS011;16347;53.232;6.556;2022-12-17T10:23:23;105.45;;;35.38;;
29358;SDS011;16347;53.232;6.556;2022-12-17T10:26:12;113.03;;;36.80;;
29358;SDS011;16347;53.232;6.556;2022-12-17T10:29:04;111.18;;;36.13;;
29358;SDS011;16347;53.232;6.556;2022-12-17T10:31:55;102.90;;;33.97;;
29358;SDS011;16347;53.232;6.556;2022-12-17T10:34:44;97.18;;;31.65;;
29358;SDS011;16347;53.232;6.556;2022-12-17T10:37:33;104.18;;;34.28;;
29358;SDS011;16347;53.232;6.556;2022-12-17T10:40:22;104.10;;;34.72;;
29358;SDS011;16347;53.232;6.556;2022-12-17T10:43:22;101.70;;;35.63;;
29358;SDS011;16347;53.232;6.556;2022-12-17T10:46:09;103.80;;;33.75;;
29358;SDS011;16347;53.232;6.556;2022-12-17T10:49:07;101.78;;;33.03;;
29358;SDS011;16347;53.232;6.556;2022-12-17T10:51:57;93.93;;;31.83;;
29358;SDS011;16347;53.232;6.556;2022-12-17T10:54:53;105.38;;;34.90;;
29358;SDS011;16347;53.232;6.556;2022-12-17T10:57:40;106.50;;;35.83;;
29358;SDS011;16347;53.232;6.556;2022-12-17T11:00:28;99.22;;;34.80;;
29358;SDS011;16347;53.232;6.556;2022-12-17T11:03:23;102.20;;;36.00;;
29358;SDS011;16347;53.232;6.556;2022-12-17T11:06:24;107.45;;;36.13;;
29358;SDS011;16347;53.232;6.556;2022-12-17T11:09:15;101.88;;;36.55;;
29358;SDS011;16347;53.232;6.556;2022-12-17T11:12:06;100.70;;;35.65;;
29358;SDS011;16347;53.232;6.556;2022-12-17T11:14:58;98.80;;;35.00;;
29358;SDS011;16347;53.232;6.556;2022-12-17T11:17:48;104.68;;;35.50;;
29358;SDS011;16347;53.232;6.556;2022-12-17T11:20:40;107.05;;;38.08;;
29358;SDS011;16347;53.232;6.556;2022-12-17T11:23:32;105.38;;;38.83;;
29358;SDS011;16347;53.232;6.556;2022-12-17T11:26:20;102.03;;;38.13;;
29358;SDS011;16347;53.232;6.556;2022-12-17T11:29:09;112.95;;;36.90;;
29358;SDS011;16347;53.232;6.556;2022-12-17T11:32:01;102.93;;;37.78;;
29358;SDS011;16347;53.232;6.556;2022-12-17T11:35:02;108.22;;;37.00;;
29358;SDS011;16347;53.232;6.556;2022-12-17T11:37:56;95.05;;;38.25;;
29358;SDS011;16347;53.232;6.556;2022-12-17T11:40:57;105.50;;;38.83;;
29358;SDS011;16347;53.232;6.556;2022-12-17T11:43:54;108.40;;;37.28;;
29358;SDS011;16347;53.232;6.556;2022-12-17T11:46:48;99.68;;;37.78;;
29358;SDS011;16347;53.232;6.556;2022-12-17T11:49:42;104.18;;;37.28;;
29358;SDS011;16347;53.232;6.556;2022-12-17T11:52:35;99.90;;;37.42;;
29358;SDS011;16347;53.232;6.556;2022-12-17T11:55:30;95.05;;;36.85;;
29358;SDS011;16347;53.232;6.556;2022-12-17T11:58:26;104.45;;;38.53;;
29358;SDS011;16347;53.232;6.556;2022-12-17T12:01:19;93.05;;;35.38;;
29358;SDS011;16347;53.232;6.556;2022-12-17T12:04:16;94.43;;;35.63;;
29358;SDS011;16347;53.232;6.556;2022-12-17T12:07:11;103.22;;;36.95;;
29358;SDS011;16347;53.232;6.556;2022-12-17T12:10:05;104.00;;;37.20;;
29358;SDS011;16347;53.232;6.556;2022-12-17T12:13:00;99.38;;;37.17;;
29358;SDS011;16347;53.232;6.556;2022-12-17T12:15:57;101.15;;;37.92;;
29358;SDS011;16347;53.232;6.556;2022-12-17T12:18:52;97.25;;;37.75;;
29358;SDS011;16347;53.232;6.556;2022-12-17T12:21:47;98.40;;;37.58;;
29358;SDS011;16347;53.232;6.556;2022-12-17T12:24:57;96.82;;;36.00;;
29358;SDS011;16347;53.232;6.556;2022-12-17T12:27:54;99.32;;;37.28;;
29358;SDS011;16347;53.232;6.556;2022-12-17T12:30:50;96.18;;;35.47;;
29358;SDS011;16347;53.232;6.556;2022-12-17T12:33:44;92.47;;;38.03;;
29358;SDS011;16347;53.232;6.556;2022-12-17T12:36:34;88.25;;;35.88;;
29358;SDS011;16347;53.232;6.556;2022-12-17T12:39:24;97.68;;;37.20;;
29358;SDS011;16347;53.232;6.556;2022-12-17T12:42:12;95.65;;;35.63;;
29358;SDS011;16347;53.232;6.556;2022-12-17T12:45:03;100.78;;;36.95;;
29358;SDS011;16347;53.232;6.556;2022-12-17T12:48:01;91.70;;;36.05;;
29358;SDS011;16347;53.232;6.556;2022-12-17T12:50:56;94.50;;;37.67;;
29358;SDS011;16347;53.232;6.556;2022-12-17T12:53:55;93.70;;;36.95;;
29358;SDS011;16347;53.232;6.556;2022-12-17T12:56:40;99.70;;;37.20;;
29358;SDS011;16347;53.232;6.556;2022-12-17T12:59:32;97.00;;;38.33;;
29358;SDS011;16347;53.232;6.556;2022-12-17T13:02:28;104.50;;;38.70;;
29358;SDS011;16347;53.232;6.556;2022-12-17T13:05:24;92.50;;;35.15;;
29358;SDS011;16347;53.232;6.556;2022-12-17T13:08:02;95.93;;;36.83;;
29358;SDS011;16347;53.232;6.556;2022-12-17T13:10:32;98.18;;;35.03;;
29358;SDS011;16347;53.232;6.556;2022-12-17T13:13:05;91.22;;;36.58;;
29358;SDS011;16347;53.232;6.556;2022-12-17T13:15:40;92.85;;;35.80;;
29358;SDS011;16347;53.232;6.556;2022-12-17T13:18:18;101.82;;;38.78;;
29358;SDS011;16347;53.232;6.556;2022-12-17T13:20:58;96.43;;;37.22;;
29358;SDS011;16347;53.232;6.556;2022-12-17T13:23:30;94.78;;;37.97;;
29358;SDS011;16347;53.232;6.556;2022-12-17T13:26:12;68.18;;;26.08;;
29358;SDS011;16347;53.232;6.556;2022-12-17T13:29:02;95.28;;;38.63;;
29358;SDS011;16347;53.232;6.556;2022-12-17T13:31:47;103.68;;;38.28;;
29358;SDS011;16347;53.232;6.556;2022-12-17T13:34:26;100.07;;;36.67;;
29358;SDS011;16347;53.232;6.556;2022-12-17T13:37:04;96.15;;;38.85;;
29358;SDS011;16347;53.232;6.556;2022-12-17T13:39:40;94.40;;;36.58;;
29358;SDS011;16347;53.232;6.556;2022-12-17T13:42:16;96.88;;;34.70;;
29358;SDS011;16347;53.232;6.556;2022-12-17T13:44:47;105.45;;;40.33;;
29358;SDS011;16347;53.232;6.556;2022-12-17T13:47:19;102.60;;;38.60;;
29358;SDS011;16347;53.232;6.556;2022-12-17T13:49:49;91.75;;;36.10;;
29358;SDS011;16347;53.232;6.556;2022-12-17T13:52:37;100.82;;;36.88;;
29358;SDS011;16347;53.232;6.556;2022-12-17T13:55:08;96.95;;;37.45;;
29358;SDS011;16347;53.232;6.556;2022-12-17T13:57:43;103.03;;;38.42;;
29358;SDS011;16347;53.232;6.556;2022-12-17T14:00:18;105.43;;;37.20;;
29358;SDS011;16347;53.232;6.556;2022-12-17T14:02:48;100.75;;;38.85;;
29358;SDS011;16347;53.232;6.556;2022-12-17T14:05:22;97.65;;;38.53;;
29358;SDS011;16347;53.232;6.556;2022-12-17T14:07:52;85.45;;;35.10;;
29358;SDS011;16347;53.232;6.556;2022-12-17T14:10:22;94.43;;;37.65;;
29358;SDS011;16347;53.232;6.556;2022-12-17T14:12:51;95.53;;;37.42;;
29358;SDS011;16347;53.232;6.556;2022-12-17T14:15:30;98.22;;;38.28;;
29358;SDS011;16347;53.232;6.556;2022-12-17T14:17:59;101.18;;;38.97;;
29358;SDS011;16347;53.232;6.556;2022-12-17T14:20:28;91.32;;;36.58;;
29358;SDS011;16347;53.232;6.556;2022-12-17T14:22:59;100.22;;;37.63;;
29358;SDS011;16347;53.232;6.556;2022-12-17T14:25:32;97.95;;;37.47;;
29358;SDS011;16347;53.232;6.556;2022-12-17T14:28:04;78.70;;;28.90;;
29358;SDS011;16347;53.232;6.556;2022-12-17T14:30:35;102.07;;;38.28;;
29358;SDS011;16347;53.232;6.556;2022-12-17T14:33:23;99.10;;;37.97;;
29358;SDS011;16347;53.232;6.556;2022-12-17T14:35:54;98.72;;;38.15;;
29358;SDS011;16347;53.232;6.556;2022-12-17T14:38:23;102.30;;;38.95;;
29358;SDS011;16347;53.232;6.556;2022-12-17T14:41:06;102.97;;;38.40;;
29358;SDS011;16347;53.232;6.556;2022-12-17T14:43:56;100.35;;;37.33;;
29358;SDS011;16347;53.232;6.556;2022-12-17T14:48:54;102.07;;;38.25;;
29358;SDS011;16347;53.232;6.556;2022-12-17T14:51:30;108.88;;;39.33;;
29358;SDS011;16347;53.232;6.556;2022-12-17T14:54:15;100.47;;;35.50;;
29358;SDS011;16347;53.232;6.556;2022-12-17T14:56:46;103.80;;;38.70;;
29358;SDS011;16347;53.232;6.556;2022-12-17T14:59:23;98.32;;;37.33;;
29358;SDS011;16347;53.232;6.556;2022-12-17T15:01:52;105.28;;;38.17;;
29358;SDS011;16347;53.232;6.556;2022-12-17T15:04:22;102.07;;;39.25;;
29358;SDS011;16347;53.232;6.556;2022-12-17T15:06:51;112.32;;;37.90;;
29358;SDS011;16347;53.232;6.556;2022-12-17T15:09:21;101.53;;;38.15;;
29358;SDS011;16347;53.232;6.556;2022-12-17T15:11:50;95.25;;;36.88;;
29358;SDS011;16347;53.232;6.556;2022-12-17T15:14:18;108.47;;;41.17;;
29358;SDS011;16347;53.232;6.556;2022-12-17T15:16:46;100.00;;;39.30;;
29358;SDS011;16347;53.232;6.556;2022-12-17T15:19:14;100.57;;;38.70;;
29358;SDS011;16347;53.232;6.556;2022-12-17T15:21:42;108.80;;;39.75;;
29358;SDS011;16347;53.232;6.556;2022-12-17T15:24:10;103.03;;;38.63;;
29358;SDS011;16347;53.232;6.556;2022-12-17T15:26:43;110.30;;;40.58;;
29358;SDS011;16347;53.232;6.556;2022-12-17T15:29:13;110.88;;;40.05;;
29358;SDS011;16347;53.232;6.556;2022-12-17T15:31:41;104.70;;;39.92;;
29358;SDS011;16347;53.232;6.556;2022-12-17T15:34:10;100.85;;;38.22;;
29358;SDS011;16347;53.232;6.556;2022-12-17T15:36:38;102.22;;;37.85;;
29358;SDS011;16347;53.232;6.556;2022-12-17T15:39:06;105.05;;;38.03;;
29358;SDS011;16347;53.232;6.556;2022-12-17T15:41:35;105.88;;;37.75;;
29358;SDS011;16347;53.232;6.556;2022-12-17T15:44:21;104.25;;;37.33;;
29358;SDS011;16347;53.232;6.556;2022-12-17T15:46:49;101.65;;;35.90;;
29358;SDS011;16347;53.232;6.556;2022-12-17T15:49:20;109.60;;;38.42;;
29358;SDS011;16347;53.232;6.556;2022-12-17T15:51:48;105.45;;;39.33;;
29358;SDS011;16347;53.232;6.556;2022-12-17T15:54:16;104.47;;;37.85;;
29358;SDS011;16347;53.232;6.556;2022-12-17T15:56:50;109.93;;;38.90;;
29358;SDS011;16347;53.232;6.556;2022-12-17T15:59:19;107.07;;;38.30;;
29358;SDS011;16347;53.232;6.556;2022-12-17T16:01:49;103.20;;;39.03;;
29358;SDS011;16347;53.232;6.556;2022-12-17T16:04:17;105.25;;;37.65;;
29358;SDS011;16347;53.232;6.556;2022-12-17T16:06:50;98.65;;;36.33;;
29358;SDS011;16347;53.232;6.556;2022-12-17T16:09:18;104.97;;;37.78;;